Hlavní strana
METAR-TAF:

METAR-TAF

Letiště :

Ropná věž

Norne Fpso, Norsko

zeměpisná šířka: 66-01-48N, zeměpisná délka: 008-04-48E, výška: 10 m

Aktuální stav počasí

Zpráva byla vytvořena před 35 minutami, v 00:20 UTC
Severní vítr 11 kt
Teplota 7°C
Vlhkost vzduchu 76%
Tlak 1035 hPa
Viditelnost 10 km a více

METAR: ENNE 200020Z AUTO 35011KT 9999NDV OVC019/// 07/03 Q1035 W///S4

Čas: 01:55 (00:55 UTC)

Předpověď počasí

Zpráva byla vytvořena před 10 hodinami a 55 minutami, v 14:00 UTC
Předpověď platná od 19 v 15 UTC do 19 v 18 UTC
Západojihozápadní vítr 22 kt
Viditelnost 10 km a více
Oblačno až skoro zataženo ve výšce 1800 ft
Dočasný
od 19 v 15 UTC do 19 v 18 UTC
Oblačno až skoro zataženo ve výšce 1200 ft

TAF: ENNE 191400Z 1915/1918 24022KT 9999 BKN018 TEMPO 1915/1918 BKN012

Stav a předpovědi počasí z více než 4 000 letišť (zprávy METAR a TAF).

Červené a žluté tečky na mapě představují dostupné meteorologické stanice.

Když kurzor umístíte na tečku, zobrazí se název stanice.

Pak kliknutím zobrazíte stav a předpověď počasí.

Chcete-li změnit mapu, kliknutím na zelené tlačítko se znaménkem +mapu přiblížíte, kliknutím na zelené tlačítko se znaménkem – mapu oddálíte a kliknutím na zelené šipky přejdete na sousední mapy.


METAR-TAF: